Flight Track Log - Related Links

Times and Time Zones

All times are in EDT time to prevent confusion due to time zone crossing. See the AVN10 flight status page for this flight to view local times or setup timezone preferences in your user account.

Time Position Orientation Groundspeed Altitude Reporting Facility
EDT Latitude Longitude Course Direction KTS MPH feet Rate Location/Type
Wed 03:54:00 PM -18.0930 168.1191 206° Southwest  Level FlightAware Approximate
Wed 03:55:00 PM -18.1914 168.0688 206° Southwest  Level FlightAware Approximate
Wed 03:56:00 PM -18.2897 168.0184 206° Southwest  Level FlightAware Approximate
Wed 03:57:00 PM -18.3881 167.9680 206° Southwest  Level FlightAware Approximate
Wed 03:58:00 PM -18.4711 167.8929 204° Southwest  Level Estimated
Wed 03:59:00 PM -18.5712 167.8464 204° Southwest  Level FlightAware Approximate
Wed 04:00:00 PM -18.6713 167.7998 204° Southwest  Level FlightAware Approximate
Wed 04:01:00 PM -18.7714 167.7532 204° Southwest  Level FlightAware Approximate
Wed 04:02:00 PM -18.8714 167.7066 204° Southwest  Level FlightAware Approximate
Wed 04:03:00 PM -18.9715 167.6598 204° Southwest  Level FlightAware Approximate
Wed 04:04:00 PM -19.0715 167.6131 204° Southwest  Level FlightAware Approximate
Wed 04:05:00 PM -19.1716 167.5662 204° Southwest  Level FlightAware Approximate
Wed 04:06:00 PM -19.2716 167.5193 204° Southwest  Level FlightAware Approximate
Wed 04:07:00 PM -19.3716 167.4724 204° Southwest  Level FlightAware Approximate
Wed 04:08:00 PM -19.4716 167.4254 204° Southwest  Level FlightAware Approximate
Wed 04:09:00 PM -19.5716 167.3783 204° Southwest  Level FlightAware Approximate
Wed 04:10:00 PM -19.6716 167.3311 204° Southwest  Level FlightAware Approximate
Wed 04:11:00 PM -19.7715 167.2840 204° Southwest  Level FlightAware Approximate
Wed 04:12:00 PM -19.8715 167.2367 204° Southwest  Level FlightAware Approximate
Wed 04:13:00 PM -19.9714 167.1894 204° Southwest  Level FlightAware Approximate
Wed 04:14:00 PM -20.0713 167.1421 204° Southwest  Level FlightAware Approximate
Wed 04:15:00 PM -20.1712 167.0946 204° Southwest  Level FlightAware Approximate
Wed 04:16:00 PM -20.2711 167.0471 204° Southwest  Level FlightAware Approximate
Wed 04:17:00 PM -20.3710 166.9996 204° Southwest  Level FlightAware Approximate
Wed 04:18:00 PM -20.4709 166.9520 204° Southwest  Level FlightAware Approximate
Wed 04:18:00 PM -20.3380 167.0030 204° Southwest 415 478 38,000  Level FlightAware ADS-B
Wed 04:18:36 PM -20.4010 166.9730 204° Southwest 414 476 38,000  Level FlightAware ADS-B
Wed 04:19:12 PM -20.4640 166.9440 203° Southwest 415 478 38,000  Level FlightAware ADS-B
Wed 04:19:44 PM -20.5230 166.9160 204° Southwest 416 479 38,000  Level FlightAware ADS-B
Wed 04:20:20 PM -20.5860 166.8860 204° Southwest 417 480 38,000  Level FlightAware ADS-B
Wed 04:20:58 PM -20.6530 166.8550 203° Southwest 415 478 38,000  Level FlightAware ADS-B
Wed 04:21:30 PM -20.7080 166.8290 204° Southwest 413 475 38,000  Level FlightAware ADS-B
Wed 04:22:06 PM -20.7700 166.8000 204° Southwest 411 473 38,000  Level FlightAware ADS-B
Wed 04:22:42 PM -20.8340 166.7690 204° Southwest 409 471 38,000  Level FlightAware ADS-B
Wed 04:23:18 PM -20.8970 166.7400 203° Southwest 410 472 38,000  Level FlightAware ADS-B
Wed 04:23:49 PM -20.9490 166.7150 204° Southwest 409 471 38,000  Level FlightAware ADS-B
Wed 04:24:26 PM -21.0160 166.6830 204° Southwest 410 472 38,000  Level FlightAware ADS-B
Wed 04:24:54 PM -21.0640 166.6610 203° Southwest 411 473 38,000  Level FlightAware ADS-B
Wed 04:25:28 PM -21.1230 166.6330 204° Southwest 412 474 38,000  Level FlightAware ADS-B
Wed 04:26:04 PM -21.1860 166.6030 204° Southwest 412 474 38,000  Level FlightAware ADS-B
Wed 04:26:40 PM -21.2490 166.5730 204° Southwest 414 476 38,000  Level FlightAware ADS-B
Wed 04:27:12 PM -21.3040 166.5470 204° Southwest 413 475 38,000  Level FlightAware ADS-B
Wed 04:27:50 PM -21.3720 166.5140 204° Southwest 412 474 38,000  Level FlightAware ADS-B
Wed 04:28:23 PM -21.4290 166.4870 204° Southwest 412 474 38,000  Level FlightAware ADS-B
Wed 04:29:00 PM -21.4950 166.4560 204° Southwest 412 474 38,000  Level FlightAware ADS-B
Wed 04:29:35 PM -21.5550 166.4270 204° Southwest 408 470 38,000  Level FlightAware ADS-B
Wed 04:30:06 PM -21.6090 166.4020 203° Southwest 405 466 38,000  Level FlightAware ADS-B
Wed 04:30:42 PM -21.6700 166.3720 205° Southwest 405 466 38,000  Level FlightAware ADS-B
Wed 04:31:20 PM -21.7360 166.3410 204° Southwest 406 467 38,000  Level FlightAware ADS-B
Wed 04:31:54 PM -21.7940 166.3130 204° Southwest 406 467 38,000  Level FlightAware ADS-B
Wed 04:32:24 PM -21.8460 166.2880 204° Southwest 407 468 38,000  Level FlightAware ADS-B
Wed 04:33:05 PM -21.9150 166.2550 204° Southwest 405 466 38,000  Level FlightAware ADS-B
Wed 04:33:38 PM -21.9740 166.2270 204° Southwest 403 464 38,000  Level FlightAware ADS-B
Wed 04:34:15 PM -22.0280 166.1880 214° Southwest 387 445 38,000  Level FlightAware ADS-B
Wed 04:34:50 PM -22.0730 166.1410 224° Southwest 383 441 38,000  Level FlightAware ADS-B
Wed 04:35:23 PM -22.1150 166.0970 224° Southwest 389 448 38,000  Level FlightAware ADS-B
Wed 04:35:59 PM -22.1620 166.0480 224° Southwest 392 451 38,000  Level FlightAware ADS-B
Wed 04:36:35 PM -22.2090 165.9980 225° Southwest 391 450 38,000  Level FlightAware ADS-B
Wed 04:37:10 PM -22.2550 165.9500 224° Southwest 391 450 38,000  Level FlightAware ADS-B
Wed 04:37:42 PM -22.2950 165.9080 224° Southwest 381 438 38,000  Level FlightAware ADS-B
Wed 04:38:18 PM -22.3420 165.8590 224° Southwest 377 434 38,000  Level FlightAware ADS-B
Wed 04:38:54 PM -22.3870 165.8120 224° Southwest 380 437 38,000  Level FlightAware ADS-B
Wed 04:39:26 PM -22.4270 165.7690 225° Southwest 381 438 38,000  Level FlightAware ADS-B
Wed 04:40:06 PM -22.4780 165.7150 224° Southwest 381 438 38,000  Level FlightAware ADS-B
Wed 04:40:40 PM -22.5200 165.6720 223° Southwest 380 437 38,000  Level FlightAware ADS-B
Wed 04:41:41 PM -22.5970 165.5900 224° Southwest 383 441 38,000  Level FlightAware ADS-B
Wed 04:43:00 PM -22.7025 165.4787 224° Southwest  Level FlightAware Approximate
Wed 04:44:00 PM -22.7807 165.3957 224° Southwest  Level FlightAware Approximate
Wed 04:45:17 PM -22.8710 165.2990 224° Southwest 381 438 38,000  Level FlightAware ADS-B
Wed 04:45:52 PM -22.9170 165.2510 224° Southwest 379 436 38,000  Level FlightAware ADS-B
Wed 04:46:28 PM -22.9610 165.2040 225° Southwest 376 433 38,000  Level FlightAware ADS-B
Wed 04:47:01 PM -23.0010 165.1610 225° Southwest 375 432 38,000  Level FlightAware ADS-B
Wed 04:47:38 PM -23.0480 165.1100 225° Southwest 374 430 38,000  Level FlightAware ADS-B
Wed 04:48:13 PM -23.0900 165.0660 224° Southwest 374 430 38,000  Level FlightAware ADS-B
Wed 04:48:50 PM -23.1360 165.0170 224° Southwest 374 430 38,000  Level FlightAware ADS-B
Wed 04:49:22 PM -23.1760 164.9740 225° Southwest 373 429 38,000  Level FlightAware ADS-B
Wed 04:49:58 PM -23.2190 164.9270 225° Southwest 373 429 38,000  Level FlightAware ADS-B
Wed 04:50:34 PM -23.2640 164.8790 224° Southwest 376 433 38,000  Level FlightAware ADS-B
Wed 04:51:04 PM -23.3000 164.8400 225° Southwest 377 434 38,000  Level FlightAware ADS-B
Wed 04:51:51 PM -23.3510 164.7870 224° Southwest 378 435 38,000  Level FlightAware ADS-B
Wed 04:52:27 PM -23.3890 164.7460 225° Southwest 378 435 38,000  Level FlightAware ADS-B
Wed 04:53:03 PM -23.4280 164.7060 223° Southwest 378 435 38,000  Level FlightAware ADS-B
Wed 04:53:39 PM -23.4660 164.6650 225° Southwest 378 435 38,000  Level FlightAware ADS-B
Wed 04:54:15 PM -23.5050 164.6250 223° Southwest 378 435 38,000  Level FlightAware ADS-B
Wed 04:54:51 PM -23.5430 164.5840 225° Southwest 378 435 38,000  Level FlightAware ADS-B
Wed 04:55:27 PM -23.5820 164.5440 223° Southwest 378 435 38,000  Level FlightAware ADS-B
Wed 04:56:03 PM -23.6200 164.5030 225° Southwest 378 435 38,000  Level FlightAware ADS-B
Wed 04:56:41 PM -23.6610 164.4600 224° Southwest 378 435 38,000  Level FlightAware ADS-B
Wed 04:57:17 PM -23.6990 164.4200 224° Southwest 378 435 38,000  Level FlightAware ADS-B
Wed 04:57:53 PM -23.7380 164.3790 224° Southwest 378 435 38,000  Level FlightAware ADS-B
Wed 04:58:29 PM -23.7760 164.3380 225° Southwest 378 435 38,000  Level FlightAware ADS-B
Wed 04:59:05 PM -23.8150 164.2980 223° Southwest 378 435 38,000  Level FlightAware ADS-B
Wed 04:59:42 PM -23.8540 164.2560 225° Southwest 378 435 38,000  Level FlightAware ADS-B
Wed 05:00:18 PM -23.8930 164.2150 224° Southwest 378 435 38,000  Level FlightAware ADS-B
Wed 05:00:55 PM -23.9320 164.1740 224° Southwest 378 435 38,000 Level FlightAware ADS-B
Wed 05:03:00 PM -24.0921 163.9965 225° Southwest  Level FlightAware Approximate
Wed 05:04:00 PM -24.1689 163.9111 225° Southwest  Level FlightAware Approximate
Wed 05:05:00 PM -24.2457 163.8257 225° Southwest  Level FlightAware Approximate
Wed 05:06:00 PM -24.3223 163.7401 225° Southwest  Level FlightAware Approximate
Wed 05:07:00 PM -24.3990 163.6544 225° Southwest  Level FlightAware Approximate
Wed 05:08:00 PM -24.4756 163.5687 226° Southwest  Level FlightAware Approximate
Wed 05:08:34 PM -24.2807 163.7738 225° Southwest 40,000  Level Aus ATC (Calculated)
Wed 05:10:00 PM -24.3782 163.6667 225° Southwest  Level FlightAware Approximate
Wed 05:11:00 PM -24.4462 163.5918 225° Southwest  Level FlightAware Approximate
Wed 05:11:34 PM -24.5333 163.4950 225° Southwest 40,000  Level Aus ATC (Calculated)
Wed 05:13:00 PM -24.6307 163.3875 225° Southwest  Level FlightAware Approximate
Wed 05:14:00 PM -24.6986 163.3125 225° Southwest  Level FlightAware Approximate
Wed 05:15:00 PM -24.7664 163.2373 225° Southwest  Level FlightAware Approximate
Wed 05:15:08 PM -24.8876 163.1011 225° Southwest 40,000  Level Aus ATC (Calculated)
Wed 05:16:00 PM -24.8342 163.1621 225° Southwest  Level FlightAware Approximate
Wed 05:16:38 PM -25.0478 162.9219 225° Southwest 40,000  Level Aus ATC (Calculated)
Wed 05:18:00 PM -25.0286 162.9454 225° Southwest  Level FlightAware Approximate
Wed 05:19:00 PM -25.0955 162.8703 225° Southwest  Level FlightAware Approximate
Wed 05:20:00 PM -25.1624 162.7952 225° Southwest  Level FlightAware Approximate
Wed 05:21:00 PM -25.2292 162.7199 226° Southwest  Level FlightAware Approximate
Wed 05:22:00 PM -25.2961 162.6446 226° Southwest  Level FlightAware Approximate
Wed 05:23:00 PM -25.3628 162.5692 226° Southwest  Level FlightAware Approximate
Wed 05:24:00 PM -25.4296 162.4937 226° Southwest  Level FlightAware Approximate
Wed 05:25:00 PM -25.4963 162.4181 226° Southwest  Level FlightAware Approximate
Wed 05:26:00 PM -25.5629 162.3424 226° Southwest  Level FlightAware Approximate
Wed 05:27:00 PM -25.6296 162.2667 226° Southwest  Level FlightAware Approximate
Wed 05:28:00 PM -25.6961 162.1909 226° Southwest  Level FlightAware Approximate
Wed 05:29:00 PM -25.7627 162.1149 226° Southwest  Level FlightAware Approximate
Wed 05:30:00 PM -25.8292 162.0389 226° Southwest  Level FlightAware Approximate
Wed 05:31:00 PM -25.8956 161.9628 226° Southwest  Level FlightAware Approximate
Wed 05:32:00 PM -25.9620 161.8867 226° Southwest  Level FlightAware Approximate
Wed 05:33:00 PM -26.0284 161.8104 226° Southwest  Level FlightAware Approximate
Wed 05:34:00 PM -26.0948 161.7341 226° Southwest  Level FlightAware Approximate
Wed 05:35:00 PM -26.1611 161.6576 226° Southwest  Level FlightAware Approximate
Wed 05:36:00 PM -26.2273 161.5811 226° Southwest  Level FlightAware Approximate
Wed 05:37:00 PM -26.2936 161.5045 226° Southwest  Level FlightAware Approximate
Wed 05:37:13 PM -26.9138 160.7794 226° Southwest 40,000  Level Aus ATC (Calculated)
Wed 05:37:46 PM -26.9560 160.7298 226° Southwest 40,000 -52 Level Aus ATC (Calculated)
Wed 05:38:11 PM -26.9968 160.6816 226° Southwest 40,000 -53 Level Aus ATC (Calculated)
Wed 05:39:25 PM -27.0759 160.5883 226° Southwest 40,000 -53 Level Aus ATC (Calculated)
Wed 05:41:00 PM -27.1799 160.4651 226° Southwest  Level FlightAware Approximate
Wed 05:41:13 PM -27.2240 160.4128 227° Southwest 40,000  Level Aus ATC (Calculated)
Wed 05:42:00 PM -27.2455 160.3873 227° Southwest  Level FlightAware Approximate
Wed 05:42:50 PM -27.3534 160.2590 227° Southwest 40,000  Level Aus ATC (Calculated)
Wed 05:43:00 PM -27.3409 160.2738 227° Southwest  Level FlightAware Approximate
Wed 05:44:00 PM -27.4298 160.1678 227° Southwest  Level FlightAware Approximate
Wed 05:44:51 PM -27.5794 159.9889 227° Southwest 40,000  Level Aus ATC (Calculated)
Wed 05:45:20 PM -27.6217 159.9381 227° Southwest 40,000 -66 Level Aus ATC (Calculated)
Wed 05:45:30 PM -27.6217 159.9381 227° Southwest 40,000 -67 Level Aus ATC (Calculated)
Wed 05:47:00 PM -27.7193 159.8208 227° Southwest  Level FlightAware Approximate
Wed 05:48:00 PM -27.7843 159.7425 227° Southwest  Level FlightAware Approximate
Wed 05:49:00 PM -27.8492 159.6640 227° Southwest  Level FlightAware Approximate
Wed 05:50:00 PM -27.9142 159.5856 227° Southwest  Level FlightAware Approximate
Wed 05:50:24 PM -28.0965 159.3642 227° Southwest 40,000  Level Aus ATC (Calculated)
Wed 05:52:00 PM -28.2001 159.2380 227° Southwest  Level FlightAware Approximate
Wed 05:53:00 PM -28.2647 159.1590 227° Southwest  Level FlightAware Approximate
Wed 05:54:00 PM -28.2001 159.2380 47° Northeast  Level FlightAware Approximate
Wed 05:55:00 PM -28.2647 159.1590 227° Southwest  Level FlightAware Approximate
Wed 05:55:24 PM -28.5397 158.8210 227° Southwest 40,000  Level Aus ATC (Calculated)
Wed 05:57:00 PM -28.4365 158.9481 47° Northeast  Level FlightAware Approximate
Wed 05:57:59 PM -28.7430 158.5693 227° Southwest 40,000  Level Aus ATC (Calculated)
Wed 05:58:00 PM -28.3720 159.0274 47° Northeast  Level FlightAware Approximate
Wed 05:58:48 PM -28.8242 158.4683 227° Southwest 40,000  Level Aus ATC (Calculated)
Wed 05:59:00 PM -28.6776 158.6504 47° Northeast  Level FlightAware Approximate
Wed 06:00:00 PM -28.7467 158.5646 47° Northeast  Level FlightAware Approximate
Wed 06:01:00 PM -28.6822 158.6447 47° Northeast  Level FlightAware Approximate
Wed 06:02:00 PM -28.6176 158.7247 47° Northeast  Level FlightAware Approximate
Wed 06:03:00 PM -28.5529 158.8046 47° Northeast  Level FlightAware Approximate
Wed 06:03:43 PM -29.2290 157.9612 227° Southwest 40,000  Level Aus ATC (Calculated)
Wed 06:04:00 PM -28.4882 158.8845 47° Northeast  Level FlightAware Approximate
Wed 06:05:00 PM -29.1466 158.0650 48° Northeast  Level FlightAware Approximate
Wed 06:06:00 PM -29.0823 158.1457 48° Northeast  Level FlightAware Approximate
Wed 06:07:00 PM -29.0180 158.2263 48° Northeast  Level FlightAware Approximate
Wed 06:08:00 PM -28.9536 158.3068 48° Northeast  Level FlightAware Approximate
Wed 06:08:42 PM -29.6720 157.3987 48° Northeast 40,000  Level Aus ATC (Calculated)
Wed 06:10:00 PM -29.5890 157.5048 48° Northeast  Level FlightAware Approximate
Wed 06:11:00 PM -29.6511 157.4214 227° Southwest  Level Estimated
Wed 06:12:00 PM -29.7150 157.3399 228° Southwest  Level FlightAware Approximate
Wed 06:13:00 PM -29.7789 157.2582 228° Southwest  Level FlightAware Approximate
Wed 06:13:51 PM -29.2537 157.9305 228° Southwest 329 379 38,100  Level Aus ATC (RADAR)
Wed 06:14:00 PM -29.8427 157.1765 228° Southwest  Level FlightAware Approximate
Wed 06:16:01 PM -29.3960 157.7511 228° Southwest 406 467 38,100  Level Aus ATC (RADAR)
Wed 06:17:11 PM -29.4724 157.6562 227° Southwest 347 399 38,100  Level Aus ATC (RADAR)
Wed 06:17:36 PM -29.4990 157.6222 228° Southwest 346 398 38,100  Level Aus ATC (RADAR)
Wed 06:18:01 PM -29.5249 157.5886 228° Southwest 342 394 38,100  Level Aus ATC (RADAR)
Wed 06:18:36 PM -29.5609 157.5419 228° Southwest 339 390 38,100  Level Aus ATC (RADAR)
Wed 06:19:21 PM -29.6123 157.4794 227° Southwest 350 403 38,100  Level Aus ATC (RADAR)
Wed 06:19:55 PM -29.6499 157.4318 228° Southwest 347 399 38,100  Level Aus ATC (RADAR)
Wed 06:20:30 PM -29.6875 157.3841 228° Southwest 347 399 38,100  Level Aus ATC (RADAR)
Wed 06:21:05 PM -29.7247 157.3363 228° Southwest 345 397 38,100  Level Aus ATC (RADAR)
Wed 06:22:10 PM -29.7928 157.2482 228° Southwest 341 392 38,100  Level Aus ATC (RADAR)
Wed 06:22:35 PM -29.8182 157.2149 229° Southwest 338 389 38,100  Level Aus ATC (RADAR)
Wed 06:23:00 PM -29.8444 157.1808 228° Southwest 339 390 38,100  Level Aus ATC (RADAR)
Wed 06:23:35 PM -29.8809 157.1331 229° Southwest 340 391 38,100  Level Aus ATC (RADAR)
Wed 06:24:20 PM -29.9267 157.0725 229° Southwest 337 388 38,100  Level Aus ATC (RADAR)
Wed 06:24:55 PM -29.9629 157.0250 229° Southwest 337 388 38,100  Level Aus ATC (RADAR)
Wed 06:25:40 PM -30.0111 156.9627 228° Southwest 344 396 38,100  Level Aus ATC (RADAR)
Wed 06:26:05 PM -30.0379 156.9284 228° Southwest 344 396 38,100  Level Aus ATC (RADAR)
Wed 06:26:40 PM -30.0749 156.8801 229° Southwest 343 395 38,100  Level Aus ATC (RADAR)
Wed 06:28:00 PM -30.1603 156.7699 228° Southwest 345 397 38,100  Level Aus ATC (RADAR)
Wed 06:28:24 PM -30.1866 156.7355 228° Southwest 344 396 38,100  Level Aus ATC (RADAR)
Wed 06:28:59 PM -30.2234 156.6877 228° Southwest 341 392 38,100  Level Aus ATC (RADAR)
Wed 06:29:44 PM -30.2706 156.6261 228° Southwest 341 392 38,100  Level Aus ATC (RADAR)
Wed 06:30:19 PM -30.3070 156.5784 229° Southwest 339 390 38,100  Level Aus ATC (RADAR)
Wed 06:31:04 PM -30.3539 156.5170 228° Southwest 339 390 38,100  Level Aus ATC (RADAR)
Wed 06:31:29 PM -30.3801 156.4829 228° Southwest 339 390 38,100  Level Aus ATC (RADAR)
Wed 06:32:34 PM -30.4475 156.3945 229° Southwest 337 388 38,100  Level Aus ATC (RADAR)
Wed 06:33:04 PM -30.4789 156.3536 228° Southwest 338 389 38,100  Level Aus ATC (RADAR)
Wed 06:33:39 PM -30.5151 156.3058 229° Southwest 338 389 38,100  Level Aus ATC (RADAR)
Wed 06:34:24 PM -30.5615 156.2450 228° Southwest 336 387 38,100  Level Aus ATC (RADAR)
Wed 06:34:59 PM -30.5975 156.1975 229° Southwest 335 386 38,100  Level Aus ATC (RADAR)
Wed 06:35:44 PM -30.6434 156.1367 229° Southwest 334 384 38,100  Level Aus ATC (RADAR)
Wed 06:36:09 PM -30.6688 156.1030 229° Southwest 334 384 38,100  Level Aus ATC (RADAR)
Wed 06:36:44 PM -30.7047 156.0556 229° Southwest 334 384 38,100  Level Aus ATC (RADAR)
Wed 06:37:49 PM -30.7709 155.9680 229° Southwest 333 383 38,100  Level Aus ATC (RADAR)
Wed 06:38:14 PM -30.7962 155.9344 229° Southwest 332 382 38,100  Level Aus ATC (RADAR)
Wed 06:38:49 PM -30.8342 155.8896 225° Southwest 332 382 38,100  Level Aus ATC (RADAR)
Wed 06:39:34 PM -30.8999 155.8519 206° Southwest 350 403 38,100 -76 Level Aus ATC (RADAR)
Wed 06:40:08 PM -30.9517 155.8228 206° Southwest 354 407 38,000  Descending Aus ATC (RADAR)
Wed 06:40:53 PM -31.0180 155.7861 205° Southwest 354 407 38,100 86 Climbing Aus ATC (RADAR)
Wed 06:41:18 PM -31.0549 155.7656 206° Southwest 353 406 38,100  Level Aus ATC (RADAR)
Wed 06:41:48 PM -31.0994 155.7409 205° Southwest 355 409 38,100 -55 Level Aus ATC (RADAR)
Wed 06:43:08 PM -31.2174 155.6744 206° Southwest 355 409 38,000  Descending Aus ATC (RADAR)
Wed 06:43:33 PM -31.2544 155.6536 206° Southwest 356 410 38,100 100 Climbing Aus ATC (RADAR)
Wed 06:44:08 PM -31.3067 155.6242 206° Southwest 358 412 38,100 -80 Level Aus ATC (RADAR)
Wed 06:44:48 PM -31.3662 155.5909 206° Southwest 358 412 38,000  Descending Aus ATC (RADAR)
Wed 06:45:23 PM -31.4181 155.5617 206° Southwest 357 411 38,100 86 Climbing Aus ATC (RADAR)
Wed 06:45:58 PM -31.4703 155.5323 206° Southwest 358 412 38,100  Level Aus ATC (RADAR)
Wed 06:46:38 PM -31.5302 155.4983 206° Southwest 359 413 38,100 -48 Level Aus ATC (RADAR)
Wed 06:48:04 PM -31.6530 155.4290 206° Southwest 362 417 38,000  Descending FlightAware ADS-B
Wed 06:48:08 PM -31.6665 155.4212 206° Southwest 362 417 38,100 207 Climbing Aus ATC (RADAR)
Wed 06:48:33 PM -31.7043 155.3997 206° Southwest 363 418 38,100 -231 Level Aus ATC (RADAR)
Wed 06:48:34 PM -31.7010 155.4020 206° Southwest 363 418 38,000 -171 Descending FlightAware ADS-B
Wed 06:49:08 PM -31.7572 155.3696 206° Southwest 364 419 38,000  Level Aus ATC (RADAR)
Wed 06:49:08 PM -31.7550 155.3710 206° Southwest 364 419 38,000  Level FlightAware ADS-B
Wed 06:49:45 PM -31.8070 155.3420 205° Southwest 363 418 38,000  Level FlightAware ADS-B
Wed 06:50:25 PM -31.8710 155.3050 206° Southwest 361 415 38,000  Level FlightAware ADS-B
Wed 06:50:55 PM -31.9140 155.2810 205° Southwest 361 415 38,000  Level FlightAware ADS-B
Wed 06:51:30 PM -31.9690 155.2490 206° Southwest 363 418 38,000  Level FlightAware ADS-B
Wed 06:52:06 PM -32.0230 155.2180 206° Southwest 364 419 38,000  Level FlightAware ADS-B
Wed 06:52:45 PM -32.0800 155.1860 205° Southwest 365 420 38,000  Level FlightAware ADS-B
Wed 06:53:21 PM -32.1350 155.1540 206° Southwest 366 421 38,000  Level FlightAware ADS-B
Wed 06:54:03 PM -32.1910 155.1220 206° Southwest 367 422 38,000  Level FlightAware ADS-B
Wed 06:54:40 PM -32.2580 155.0840 206° Southwest 663 763 38,000  Level FlightAware ADS-B
Wed 06:55:16 PM -32.3100 155.0540 206° Southwest 371 427 38,000  Level FlightAware ADS-B
Wed 06:55:51 PM -32.3690 155.0200 206° Southwest 371 427 38,000  Level FlightAware ADS-B
Wed 06:56:25 PM -32.4200 154.9900 206° Southwest 369 425 38,000  Level FlightAware ADS-B
Wed 06:57:02 PM -32.4760 154.9580 206° Southwest 369 425 38,000  Level FlightAware ADS-B
Wed 06:57:42 PM -32.5380 154.9220 206° Southwest 369 425 38,000 80 Level FlightAware ADS-B
Wed 06:58:17 PM -32.5956 154.8882 206° Southwest 369 425 38,100  Climbing Aus ATC (RADAR)
Wed 06:58:24 PM -32.6020 154.8850 206° Southwest 369 425 38,000 -140 Descending FlightAware ADS-B
Wed 06:59:00 PM -32.6570 154.8530 206° Southwest 369 425 38,000  Level FlightAware ADS-B
Wed 06:59:32 PM -32.7040 154.8260 206° Southwest 370 426 38,000  Level FlightAware ADS-B
Wed 07:00:12 PM -32.7700 154.7870 206° Southwest 364 419 38,000  Level FlightAware ADS-B
Wed 07:00:43 PM -32.8160 154.7610 206° Southwest 371 427 38,000  Level FlightAware ADS-B
Wed 07:00:46 PM -32.8252 154.7543 206° Southwest 370 426 38,000  Level Aus ATC (RADAR)
Wed 07:01:19 PM -32.8700 154.7290 206° Southwest 371 427 38,000  Level FlightAware ADS-B
Wed 07:01:53 PM -32.9220 154.6990 206° Southwest 370 426 38,000  Level FlightAware ADS-B
Wed 07:02:31 PM -32.9750 154.6670 207° Southwest 370 426 38,000  Level FlightAware ADS-B
Wed 07:03:04 PM -33.0330 154.6340 205° Southwest 372 428 38,000  Level FlightAware ADS-B
Wed 07:03:40 PM -33.0880 154.6010 207° Southwest 372 428 38,000  Level FlightAware ADS-B
Wed 07:04:13 PM -33.1390 154.5710 206° Southwest 374 430 38,000  Level FlightAware ADS-B
Wed 07:04:56 PM -33.2050 154.5330 206° Southwest 374 430 38,000  Level FlightAware ADS-B
Wed 07:05:33 PM -33.2630 154.4980 207° Southwest 376 433 38,000  Level FlightAware ADS-B
Wed 07:06:09 PM -33.3190 154.4650 206° Southwest 378 435 38,000  Level FlightAware ADS-B
Wed 07:06:36 PM -33.3550 154.4330 217° Southwest 364 419 38,000  Level FlightAware ADS-B
Wed 07:07:12 PM -33.3850 154.3670 217° Southwest 360 414 38,000  Level FlightAware ADS-B
Wed 07:07:16 PM -33.3882 154.3551 217° Southwest 362 417 38,000  Level Aus ATC (RADAR)
Wed 07:07:50 PM -33.4110 154.3030 244° Southwest 356 410 38,000  Level FlightAware ADS-B
Wed 07:08:28 PM -33.4390 154.2320 245° Southwest 357 411 38,000  Level FlightAware ADS-B
Wed 07:09:00 PM -33.4625 154.1687 245° Southwest 353 406 38,000  Level Aus ATC (RADAR)
Wed 07:09:10 PM -33.4680 154.1570 245° Southwest 353 406 38,000  Level FlightAware ADS-B
Wed 07:09:45 PM -33.4920 154.0970 244° Southwest 352 405 38,000  Level FlightAware ADS-B
Wed 07:10:21 PM -33.5170 154.0330 245° Southwest 353 406 38,000  Level FlightAware ADS-B
Wed 07:10:53 PM -33.5390 153.9780 244° Southwest 350 403 38,000  Level FlightAware ADS-B
Wed 07:11:31 PM -33.5650 153.9100 245° Southwest 349 402 38,000  Level FlightAware ADS-B
Wed 07:12:11 PM -33.5940 153.8380 244° Southwest 349 402 38,000  Level FlightAware ADS-B
Wed 07:12:44 PM -33.6160 153.7800 245° Southwest 349 402 38,000  Level FlightAware ADS-B
Wed 07:13:18 PM -33.6390 153.7210 245° Southwest 349 402 38,000  Level FlightAware ADS-B
Wed 07:13:51 PM -33.6610 153.6640 245° Southwest 349 402 38,000  Level FlightAware ADS-B
Wed 07:14:27 PM -33.6850 153.6030 245° Southwest 350 403 38,000  Level FlightAware ADS-B
Wed 07:15:06 PM -33.7130 153.5310 245° Southwest 350 403 38,000  Level FlightAware ADS-B
Wed 07:15:43 PM -33.7380 153.4670 245° Southwest 351 404 38,000  Level FlightAware ADS-B
Wed 07:16:18 PM -33.7620 153.4060 245° Southwest 353 406 38,000  Level FlightAware ADS-B
Wed 07:17:00 PM -33.7910 153.3300 245° Southwest 353 406 38,000  Level FlightAware ADS-B
Wed 07:17:32 PM -33.8130 153.2730 245° Southwest 353 406 38,000  Level FlightAware ADS-B
Wed 07:18:07 PM -33.8370 153.2100 245° Southwest 353 406 38,000  Level FlightAware ADS-B
Wed 07:18:40 PM -33.8580 153.1550 245° Southwest 354 407 38,000 90 Level FlightAware ADS-B
Wed 07:19:14 PM -33.8848 153.0841 245° Southwest 356 410 38,100  Climbing Aus ATC (RADAR)
Wed 07:19:16 PM -33.8840 153.0870 245° Southwest 357 411 38,000 -167 Descending FlightAware ADS-B
Wed 07:19:50 PM -33.9080 153.0260 245° Southwest 359 413 38,000 158 Level FlightAware ADS-B
Wed 07:19:54 PM -33.9123 153.0121 245° Southwest 355 409 38,100 -600 Climbing Aus ATC (RADAR)
Wed 07:20:30 PM -33.9350 152.9550 245° Southwest 347 399 37,600 -1,701 Descending FlightAware ADS-B
Wed 07:21:01 PM -33.9560 152.8990 246° West 348 400 36,200 -2,866 Descending FlightAware ADS-B
Wed 07:21:37 PM -33.9790 152.8370 246° West 355 409 34,400 -3,086 Descending FlightAware ADS-B
Wed 07:22:11 PM -34.0040 152.7730 245° Southwest 356 410 32,600 -2,829 Descending FlightAware ADS-B
Wed 07:22:47 PM -34.0280 152.7090 246° West 349 402 31,100 -2,444 Descending FlightAware ADS-B
Wed 07:23:32 PM -34.0580 152.6300 245° Southwest 338 389 29,300 -2,338 Descending FlightAware ADS-B
Wed 07:24:04 PM -34.0760 152.5760 248° West 328 377 28,100 -2,250 Descending FlightAware ADS-B
Wed 07:24:20 PM -34.0790 152.5470 263° West 327 376 27,500 -2,125 Descending FlightAware ADS-B
Wed 07:24:52 PM -34.0750 152.4910 275° West 321 369 26,400 -2,149 Descending FlightAware ADS-B
Wed 07:25:27 PM -34.0700 152.4320 276° West 315 362 25,100 -2,206 Descending FlightAware ADS-B
Wed 07:26:00 PM -34.0640 152.3700 277° West 308 354 23,900 -2,113 Descending FlightAware ADS-B
Wed 07:26:38 PM -34.0580 152.3070 277° West 306 352 22,600 -2,083 Descending FlightAware ADS-B
Wed 07:27:12 PM -34.0520 152.2490 277° West 304 350 21,400 -2,143 Descending FlightAware ADS-B
Wed 07:27:48 PM -34.0470 152.1890 276° West 300 345 20,100 -2,080 Descending FlightAware ADS-B
Wed 07:28:27 PM -34.0400 152.1250 278° West 296 341 18,800 -1,975 Descending FlightAware ADS-B
Wed 07:29:07 PM -34.0340 152.0590 276° West 293 337 17,500 -1,974 Descending FlightAware ADS-B
Wed 07:29:43 PM -34.0280 152.0030 277° West 292 336 16,300 -2,000 Descending FlightAware ADS-B
Wed 07:30:13 PM -34.0230 151.9530 277° West 291 335 15,300 -2,000 Descending FlightAware ADS-B
Wed 07:30:43 PM -34.0179 151.9001 277° West 288 331 14,300 -1,946 Descending Aus ATC (RADAR)
Wed 07:30:50 PM -34.0180 151.8950 277° West 291 335 14,100 -1,909 Descending FlightAware ADS-B
Wed 07:31:27 PM -34.0110 151.8330 278° West 289 333 12,900 -1,973 Descending FlightAware ADS-B
Wed 07:32:03 PM -34.0060 151.7780 276° West 284 327 11,700 -1,941 Descending FlightAware ADS-B
Wed 07:32:35 PM -34.0000 151.7280 278° West 282 325 10,700 -1,433 Descending FlightAware ADS-B
Wed 07:33:10 PM -33.9950 151.6720 276° West 281 323 10,100 -1,015 Descending FlightAware ADS-B
Wed 07:33:40 PM -33.9900 151.6280 278° West 270 311 9,600 -1,263 Descending FlightAware ADS-B
Wed 07:34:07 PM -33.9860 151.5860 277° West 266 306 8,900 -1,333 Descending FlightAware ADS-B
Wed 07:34:25 PM -33.9830 151.5610 278° West 264 304 8,600 -973 Descending FlightAware ADS-B
Wed 07:34:44 PM -33.9800 151.5340 278° West 264 304 8,300 -1,077 Descending FlightAware ADS-B
Wed 07:35:04 PM -33.9770 151.5050 277° West 261 300 7,900 -923 Descending FlightAware ADS-B
Wed 07:35:23 PM -33.9740 151.4790 278° West 261 300 7,700 -875 Descending FlightAware ADS-B
Wed 07:35:52 PM -33.9700 151.4360 276° West 260 299 7,200 -923 Descending FlightAware ADS-B
Wed 07:36:15 PM -33.9680 151.4040 274° West 248 285 6,900 -955 Descending FlightAware ADS-B
Wed 07:36:36 PM -33.9780 151.3780 245° Southwest 245 282 6,500 -1,154 Descending FlightAware ADS-B
Wed 07:36:41 PM -33.9840 151.3720 220° Southwest 245 282 6,400 -900 Descending FlightAware ADS-B
Wed 07:36:56 PM -33.9990 151.3640 204° Southwest 243 280 6,200 -857 Descending FlightAware ADS-B
Wed 07:37:16 PM -34.0200 151.3560 198° South 235 270 5,900 -900 Descending FlightAware ADS-B
Wed 07:37:36 PM -34.0410 151.3480 198° South 233 268 5,600 -692 Descending FlightAware ADS-B
Wed 07:37:42 PM -34.0450 151.3480 180° South 235 270 5,600 -667 Level FlightAware ADS-B
Wed 07:38:03 PM -34.0660 151.3520 171° South 236 272 5,300 -955 Descending FlightAware ADS-B
Wed 07:38:26 PM -34.0940 151.3600 167° South 237 273 4,900 -909 Descending FlightAware ADS-B
Wed 07:38:36 PM -34.1020 151.3620 168° South 231 266 4,800 -600 Descending FlightAware ADS-B
Wed 07:38:56 PM -34.1230 151.3580 189° South 218 251 4,600 -766 Descending FlightAware ADS-B
Wed 07:39:23 PM -34.1490 151.3460 201° Southwest 209 241 4,200 -638 Descending FlightAware ADS-B
Wed 07:39:43 PM -34.1670 151.3370 202° Southwest 208 239 4,100 -400 Descending FlightAware ADS-B
Wed 07:39:53 PM -34.1770 151.3320 202° Southwest 205 236 4,000 -300 Descending FlightAware ADS-B
Wed 07:40:03 PM -34.1830 151.3240 228° Southwest 206 237 4,000  Level FlightAware ADS-B
Wed 07:40:13 PM -34.1860 151.3130 252° West 209 241 4,000 -400 Level FlightAware ADS-B
Wed 07:40:18 PM -34.1860 151.3070 270° West 211 243 3,900 -600 Descending FlightAware ADS-B
Wed 07:40:23 PM -34.1850 151.3010 281° West 215 247 3,900 -400 Level FlightAware ADS-B
Wed 07:40:33 PM -34.1800 151.2910 301° West 218 251 3,800 -800 Descending FlightAware ADS-B
Wed 07:40:38 PM -34.1770 151.2860 306° West 218 251 3,700 -720 Descending FlightAware ADS-B
Wed 07:40:58 PM -34.1600 151.2710 324° Northwest 213 245 3,500 -686 Descending FlightAware ADS-B
Wed 07:41:13 PM -34.1500 151.2610 320° Northwest 207 238 3,300 -750 Descending FlightAware ADS-B
Wed 07:41:38 PM -34.1310 151.2430 322° Northwest 201 231 3,000 -667 Descending FlightAware ADS-B
Wed 07:41:58 PM -34.1140 151.2320 332° Northwest 202 232 2,800 -600 Descending FlightAware ADS-B
Wed 07:42:08 PM -34.1060 151.2290 343° North 199 229 2,700 -1,000 Descending FlightAware ADS-B
Wed 07:42:34 PM -34.0840 151.2230 347° North 191 220 2,200 -1,067 Descending FlightAware ADS-B
Wed 07:42:53 PM -34.0670 151.2190 349° North 177 204 1,900 -882 Descending FlightAware ADS-B
Wed 07:43:08 PM -34.0550 151.2160 348° North 167 192 1,700 -857 Descending FlightAware ADS-B
Wed 07:43:28 PM -34.0410 151.2120 347° North 147 169 1,400 -857 Descending FlightAware ADS-B
Wed 07:43:43 PM -34.0310 151.2100 351° North 141 162 1,200 -833 Descending FlightAware ADS-B
Wed 07:44:04 PM -34.0190 151.2060 345° North 139 160 900 -750 Descending FlightAware ADS-B
Wed 07:44:23 PM -34.0060 151.2030 349° North 141 162 700 -615 Descending FlightAware ADS-B
Wed 07:44:43 PM -33.9940 151.2000 348° North 138 159 500 -750 Descending FlightAware ADS-B
Wed 07:45:11 PM -33.9760 151.1950 347° North 132 152 100 -857 Descending FlightAware ADS-B
Wed 07:45:26 PM -33.9660 151.1930 351° North 132 152 -400 Descending FlightAware ADS-B

Login

Don't have an account? Register now (free) for customized features, flight alerts, and more!